sensor_id;sensor_type;location;lat;lon;timestamp;P1;durP1;ratioP1;P2;durP2;ratioP2
76548;SDS011;65391;52.068;4.542;2023-08-08T00:00:45;9.9;;;2.1;;
76548;SDS011;65391;52.068;4.542;2023-08-08T00:03:10;12.8;;;2.1;;
76548;SDS011;65391;52.068;4.542;2023-08-08T00:05:35;12.8;;;2.1;;
76548;SDS011;65391;52.068;4.542;2023-08-08T00:08:00;12.8;;;2.1;;
76548;SDS011;65391;52.068;4.542;2023-08-08T00:10:25;12.8;;;2.1;;
76548;SDS011;65391;52.068;4.542;2023-08-08T00:12:50;4.8;;;1.4;;
76548;SDS011;65391;52.068;4.542;2023-08-08T00:15:15;4.8;;;1.4;;
76548;SDS011;65391;52.068;4.542;2023-08-08T00:17:40;4.8;;;1.4;;
76548;SDS011;65391;52.068;4.542;2023-08-08T00:20:05;4.8;;;1.4;;
76548;SDS011;65391;52.068;4.542;2023-08-08T00:22:30;4.8;;;1.4;;
76548;SDS011;65391;52.068;4.542;2023-08-08T00:24:55;6.7;;;1.7;;
76548;SDS011;65391;52.068;4.542;2023-08-08T00:27:20;6.7;;;1.7;;
76548;SDS011;65391;52.068;4.542;2023-08-08T00:29:45;6.7;;;1.7;;
76548;SDS011;65391;52.068;4.542;2023-08-08T00:32:10;6.7;;;1.7;;
76548;SDS011;65391;52.068;4.542;2023-08-08T00:34:35;4.5;;;1.2;;
76548;SDS011;65391;52.068;4.542;2023-08-08T00:37:00;4.5;;;1.2;;
76548;SDS011;65391;52.068;4.542;2023-08-08T00:39:25;4.5;;;1.2;;
76548;SDS011;65391;52.068;4.542;2023-08-08T00:41:50;4.5;;;1.2;;
76548;SDS011;65391;52.068;4.542;2023-08-08T00:44:15;3.9;;;1.5;;
76548;SDS011;65391;52.068;4.542;2023-08-08T00:46:40;3.9;;;1.5;;
76548;SDS011;65391;52.068;4.542;2023-08-08T00:49:05;3.9;;;1.5;;
76548;SDS011;65391;52.068;4.542;2023-08-08T00:51:30;3.9;;;1.5;;
76548;SDS011;65391;52.068;4.542;2023-08-08T00:53:55;3.5;;;1.3;;
76548;SDS011;65391;52.068;4.542;2023-08-08T00:56:20;3.5;;;1.3;;
76548;SDS011;65391;52.068;4.542;2023-08-08T00:58:45;3.5;;;1.3;;
76548;SDS011;65391;52.068;4.542;2023-08-08T01:01:10;3.5;;;1.3;;
76548;SDS011;65391;52.068;4.542;2023-08-08T01:03:35;6.4;;;1.5;;
76548;SDS011;65391;52.068;4.542;2023-08-08T01:06:02;6.4;;;1.5;;
76548;SDS011;65391;52.068;4.542;2023-08-08T01:08:27;6.4;;;1.5;;
76548;SDS011;65391;52.068;4.542;2023-08-08T01:10:50;6.4;;;1.5;;
76548;SDS011;65391;52.068;4.542;2023-08-08T01:13:19;5.6;;;1.6;;
76548;SDS011;65391;52.068;4.542;2023-08-08T01:15:40;5.6;;;1.6;;
76548;SDS011;65391;52.068;4.542;2023-08-08T01:18:06;5.6;;;1.6;;
76548;SDS011;65391;52.068;4.542;2023-08-08T01:20:30;5.6;;;1.6;;
76548;SDS011;65391;52.068;4.542;2023-08-08T01:22:56;2.9;;;1.3;;
76548;SDS011;65391;52.068;4.542;2023-08-08T01:25:20;2.9;;;1.3;;
76548;SDS011;65391;52.068;4.542;2023-08-08T01:27:45;2.9;;;1.3;;
76548;SDS011;65391;52.068;4.542;2023-08-08T01:30:10;2.9;;;1.3;;
76548;SDS011;65391;52.068;4.542;2023-08-08T01:32:35;2.9;;;1.3;;
76548;SDS011;65391;52.068;4.542;2023-08-08T01:35:00;5.2;;;1.4;;
76548;SDS011;65391;52.068;4.542;2023-08-08T01:37:29;5.2;;;1.4;;
76548;SDS011;65391;52.068;4.542;2023-08-08T01:39:50;5.2;;;1.4;;
76548;SDS011;65391;52.068;4.542;2023-08-08T01:42:15;5.2;;;1.4;;
76548;SDS011;65391;52.068;4.542;2023-08-08T01:44:40;2.3;;;0.9;;
76548;SDS011;65391;52.068;4.542;2023-08-08T01:47:06;2.3;;;0.9;;
76548;SDS011;65391;52.068;4.542;2023-08-08T01:49:30;2.3;;;0.9;;
76548;SDS011;65391;52.068;4.542;2023-08-08T01:51:55;2.3;;;0.9;;
76548;SDS011;65391;52.068;4.542;2023-08-08T01:54:20;2.2;;;1.1;;
76548;SDS011;65391;52.068;4.542;2023-08-08T01:56:45;2.2;;;1.1;;
76548;SDS011;65391;52.068;4.542;2023-08-08T01:59:10;2.2;;;1.1;;
76548;SDS011;65391;52.068;4.542;2023-08-08T02:01:35;2.2;;;1.1;;
76548;SDS011;65391;52.068;4.542;2023-08-08T02:04:00;5.4;;;1.4;;
76548;SDS011;65391;52.068;4.542;2023-08-08T02:06:25;5.4;;;1.4;;
76548;SDS011;65391;52.068;4.542;2023-08-08T02:08:50;5.4;;;1.4;;
76548;SDS011;65391;52.068;4.542;2023-08-08T02:11:15;5.4;;;1.4;;
76548;SDS011;65391;52.068;4.542;2023-08-08T02:13:40;6.9;;;1.1;;
76548;SDS011;65391;52.068;4.542;2023-08-08T02:16:05;6.9;;;1.1;;
76548;SDS011;65391;52.068;4.542;2023-08-08T02:18:30;6.9;;;1.1;;
76548;SDS011;65391;52.068;4.542;2023-08-08T02:20:55;6.9;;;1.1;;
76548;SDS011;65391;52.068;4.542;2023-08-08T02:23:20;7.8;;;1.7;;
76548;SDS011;65391;52.068;4.542;2023-08-08T02:25:45;7.8;;;1.7;;
76548;SDS011;65391;52.068;4.542;2023-08-08T02:28:10;7.8;;;1.7;;
76548;SDS011;65391;52.068;4.542;2023-08-08T02:30:35;7.8;;;1.7;;
76548;SDS011;65391;52.068;4.542;2023-08-08T02:33:00;7.8;;;1.7;;
76548;SDS011;65391;52.068;4.542;2023-08-08T02:35:25;3.8;;;1.1;;
76548;SDS011;65391;52.068;4.542;2023-08-08T02:37:50;3.8;;;1.1;;
76548;SDS011;65391;52.068;4.542;2023-08-08T02:40:15;3.8;;;1.1;;
76548;SDS011;65391;52.068;4.542;2023-08-08T02:42:40;3.8;;;1.1;;
76548;SDS011;65391;52.068;4.542;2023-08-08T02:45:06;6.1;;;1.1;;
76548;SDS011;65391;52.068;4.542;2023-08-08T02:47:30;6.1;;;1.1;;
76548;SDS011;65391;52.068;4.542;2023-08-08T02:49:55;6.1;;;1.1;;
76548;SDS011;65391;52.068;4.542;2023-08-08T02:52:20;6.1;;;1.1;;
76548;SDS011;65391;52.068;4.542;2023-08-08T02:54:45;4.4;;;1.5;;
76548;SDS011;65391;52.068;4.542;2023-08-08T02:57:10;4.4;;;1.5;;
76548;SDS011;65391;52.068;4.542;2023-08-08T02:59:35;4.4;;;1.5;;
76548;SDS011;65391;52.068;4.542;2023-08-08T03:02:00;4.4;;;1.5;;
76548;SDS011;65391;52.068;4.542;2023-08-08T03:04:25;2.8;;;0.9;;
76548;SDS011;65391;52.068;4.542;2023-08-08T03:06:50;2.8;;;0.9;;
76548;SDS011;65391;52.068;4.542;2023-08-08T03:09:15;2.8;;;0.9;;
76548;SDS011;65391;52.068;4.542;2023-08-08T03:11:40;2.8;;;0.9;;
76548;SDS011;65391;52.068;4.542;2023-08-08T03:14:05;7.7;;;2.1;;
76548;SDS011;65391;52.068;4.542;2023-08-08T03:16:30;7.7;;;2.1;;
76548;SDS011;65391;52.068;4.542;2023-08-08T03:18:55;7.7;;;2.1;;
76548;SDS011;65391;52.068;4.542;2023-08-08T03:21:20;7.7;;;2.1;;
76548;SDS011;65391;52.068;4.542;2023-08-08T03:23:46;4;;;0.8;;
76548;SDS011;65391;52.068;4.542;2023-08-08T03:26:10;4;;;0.8;;
76548;SDS011;65391;52.068;4.542;2023-08-08T03:28:35;4;;;0.8;;
76548;SDS011;65391;52.068;4.542;2023-08-08T03:31:00;4;;;0.8;;
76548;SDS011;65391;52.068;4.542;2023-08-08T03:33:25;8.9;;;1.2;;
76548;SDS011;65391;52.068;4.542;2023-08-08T03:35:50;8.9;;;1.2;;
76548;SDS011;65391;52.068;4.542;2023-08-08T03:38:15;8.9;;;1.2;;
76548;SDS011;65391;52.068;4.542;2023-08-08T03:40:40;8.9;;;1.2;;
76548;SDS011;65391;52.068;4.542;2023-08-08T03:43:05;8.9;;;1.2;;
76548;SDS011;65391;52.068;4.542;2023-08-08T03:45:30;4.9;;;0.8;;
76548;SDS011;65391;52.068;4.542;2023-08-08T03:47:55;4.9;;;0.8;;
76548;SDS011;65391;52.068;4.542;2023-08-08T03:50:20;4.9;;;0.8;;
76548;SDS011;65391;52.068;4.542;2023-08-08T03:52:45;4.9;;;0.8;;
76548;SDS011;65391;52.068;4.542;2023-08-08T03:55:10;1.4;;;0.6;;
76548;SDS011;65391;52.068;4.542;2023-08-08T03:57:36;1.4;;;0.6;;
76548;SDS011;65391;52.068;4.542;2023-08-08T04:00:00;1.4;;;0.6;;
76548;SDS011;65391;52.068;4.542;2023-08-08T04:02:25;1.4;;;0.6;;
76548;SDS011;65391;52.068;4.542;2023-08-08T04:04:50;4;;;0.6;;
76548;SDS011;65391;52.068;4.542;2023-08-08T04:07:15;4;;;0.6;;
76548;SDS011;65391;52.068;4.542;2023-08-08T04:09:40;4;;;0.6;;
76548;SDS011;65391;52.068;4.542;2023-08-08T04:12:06;4;;;0.6;;
76548;SDS011;65391;52.068;4.542;2023-08-08T04:14:30;3;;;0.7;;
76548;SDS011;65391;52.068;4.542;2023-08-08T04:16:56;3;;;0.7;;
76548;SDS011;65391;52.068;4.542;2023-08-08T04:19:20;3;;;0.7;;
76548;SDS011;65391;52.068;4.542;2023-08-08T04:21:45;3;;;0.7;;
76548;SDS011;65391;52.068;4.542;2023-08-08T04:24:10;2.6;;;0.7;;
76548;SDS011;65391;52.068;4.542;2023-08-08T04:26:35;2.6;;;0.7;;
76548;SDS011;65391;52.068;4.542;2023-08-08T04:29:00;2.6;;;0.7;;
76548;SDS011;65391;52.068;4.542;2023-08-08T04:31:25;2.6;;;0.7;;
76548;SDS011;65391;52.068;4.542;2023-08-08T04:33:50;4.4;;;0.8;;
76548;SDS011;65391;52.068;4.542;2023-08-08T04:36:15;4.4;;;0.8;;
76548;SDS011;65391;52.068;4.542;2023-08-08T04:38:40;4.4;;;0.8;;
76548;SDS011;65391;52.068;4.542;2023-08-08T04:41:05;4.4;;;0.8;;
76548;SDS011;65391;52.068;4.542;2023-08-08T04:43:30;3.7;;;0.8;;
76548;SDS011;65391;52.068;4.542;2023-08-08T04:45:55;3.7;;;0.8;;
76548;SDS011;65391;52.068;4.542;2023-08-08T04:48:21;3.7;;;0.8;;
76548;SDS011;65391;52.068;4.542;2023-08-08T04:50:46;3.7;;;0.8;;
76548;SDS011;65391;52.068;4.542;2023-08-08T04:53:10;3.7;;;0.8;;
76548;SDS011;65391;52.068;4.542;2023-08-08T04:55:35;3;;;0.8;;
76548;SDS011;65391;52.068;4.542;2023-08-08T04:58:00;3;;;0.8;;
76548;SDS011;65391;52.068;4.542;2023-08-08T05:00:26;3;;;0.8;;
76548;SDS011;65391;52.068;4.542;2023-08-08T05:02:50;3;;;0.8;;
76548;SDS011;65391;52.068;4.542;2023-08-08T05:05:15;4.5;;;1;;
76548;SDS011;65391;52.068;4.542;2023-08-08T05:07:40;4.5;;;1;;
76548;SDS011;65391;52.068;4.542;2023-08-08T05:10:06;4.5;;;1;;
76548;SDS011;65391;52.068;4.542;2023-08-08T05:12:30;4.5;;;1;;
76548;SDS011;65391;52.068;4.542;2023-08-08T05:14:56;3.8;;;0.7;;
76548;SDS011;65391;52.068;4.542;2023-08-08T05:17:20;3.8;;;0.7;;
76548;SDS011;65391;52.068;4.542;2023-08-08T05:19:45;3.8;;;0.7;;
76548;SDS011;65391;52.068;4.542;2023-08-08T05:22:10;3.8;;;0.7;;
76548;SDS011;65391;52.068;4.542;2023-08-08T05:24:35;4.9;;;0.8;;
76548;SDS011;65391;52.068;4.542;2023-08-08T05:27:01;4.9;;;0.8;;
76548;SDS011;65391;52.068;4.542;2023-08-08T05:29:26;4.9;;;0.8;;
76548;SDS011;65391;52.068;4.542;2023-08-08T05:31:50;4.9;;;0.8;;
76548;SDS011;65391;52.068;4.542;2023-08-08T05:34:15;4.4;;;0.7;;
76548;SDS011;65391;52.068;4.542;2023-08-08T05:36:40;4.4;;;0.7;;
76548;SDS011;65391;52.068;4.542;2023-08-08T05:39:06;4.4;;;0.7;;
76548;SDS011;65391;52.068;4.542;2023-08-08T05:41:30;4.4;;;0.7;;
76548;SDS011;65391;52.068;4.542;2023-08-08T05:43:55;1.6;;;0.6;;
76548;SDS011;65391;52.068;4.542;2023-08-08T05:46:20;1.6;;;0.6;;
76548;SDS011;65391;52.068;4.542;2023-08-08T05:48:46;1.6;;;0.6;;
76548;SDS011;65391;52.068;4.542;2023-08-08T05:51:11;1.6;;;0.6;;
76548;SDS011;65391;52.068;4.542;2023-08-08T05:53:36;2.4;;;0.5;;
76548;SDS011;65391;52.068;4.542;2023-08-08T05:56:01;2.4;;;0.5;;
76548;SDS011;65391;52.068;4.542;2023-08-08T05:58:26;2.4;;;0.5;;
76548;SDS011;65391;52.068;4.542;2023-08-08T06:00:51;2.4;;;0.5;;
76548;SDS011;65391;52.068;4.542;2023-08-08T06:03:16;2.4;;;0.5;;
76548;SDS011;65391;52.068;4.542;2023-08-08T06:05:41;3.2;;;0.5;;
76548;SDS011;65391;52.068;4.542;2023-08-08T06:08:06;3.2;;;0.5;;
76548;SDS011;65391;52.068;4.542;2023-08-08T06:10:31;3.2;;;0.5;;
76548;SDS011;65391;52.068;4.542;2023-08-08T06:12:56;3.2;;;0.5;;
76548;SDS011;65391;52.068;4.542;2023-08-08T06:15:21;3;;;0.6;;
76548;SDS011;65391;52.068;4.542;2023-08-08T06:17:46;3;;;0.6;;
76548;SDS011;65391;52.068;4.542;2023-08-08T06:20:11;3;;;0.6;;
76548;SDS011;65391;52.068;4.542;2023-08-08T06:22:36;3;;;0.6;;
76548;SDS011;65391;52.068;4.542;2023-08-08T06:25:01;4.3;;;1.5;;
76548;SDS011;65391;52.068;4.542;2023-08-08T06:27:26;4.3;;;1.5;;
76548;SDS011;65391;52.068;4.542;2023-08-08T06:29:51;4.3;;;1.5;;
76548;SDS011;65391;52.068;4.542;2023-08-08T06:32:16;4.3;;;1.5;;
76548;SDS011;65391;52.068;4.542;2023-08-08T06:34:41;2.8;;;0.5;;
76548;SDS011;65391;52.068;4.542;2023-08-08T06:37:06;2.8;;;0.5;;
76548;SDS011;65391;52.068;4.542;2023-08-08T06:39:31;2.8;;;0.5;;
76548;SDS011;65391;52.068;4.542;2023-08-08T06:41:56;2.8;;;0.5;;
76548;SDS011;65391;52.068;4.542;2023-08-08T06:44:21;3.3;;;0.4;;
76548;SDS011;65391;52.068;4.542;2023-08-08T06:46:46;3.3;;;0.4;;
76548;SDS011;65391;52.068;4.542;2023-08-08T06:49:11;3.3;;;0.4;;
76548;SDS011;65391;52.068;4.542;2023-08-08T06:51:36;3.3;;;0.4;;
76548;SDS011;65391;52.068;4.542;2023-08-08T06:54:01;2.6;;;0.8;;
76548;SDS011;65391;52.068;4.542;2023-08-08T06:56:26;2.6;;;0.8;;
76548;SDS011;65391;52.068;4.542;2023-08-08T06:58:51;2.6;;;0.8;;
76548;SDS011;65391;52.068;4.542;2023-08-08T07:01:16;2.6;;;0.8;;
76548;SDS011;65391;52.068;4.542;2023-08-08T07:03:41;1.1;;;0.3;;
76548;SDS011;65391;52.068;4.542;2023-08-08T07:06:06;1.1;;;0.3;;
76548;SDS011;65391;52.068;4.542;2023-08-08T07:08:31;1.1;;;0.3;;
76548;SDS011;65391;52.068;4.542;2023-08-08T07:10:56;1.1;;;0.3;;
76548;SDS011;65391;52.068;4.542;2023-08-08T07:13:21;1.1;;;0.3;;
76548;SDS011;65391;52.068;4.542;2023-08-08T07:15:46;2.5;;;0.4;;
76548;SDS011;65391;52.068;4.542;2023-08-08T07:18:11;2.5;;;0.4;;
76548;SDS011;65391;52.068;4.542;2023-08-08T07:20:36;2.5;;;0.4;;
76548;SDS011;65391;52.068;4.542;2023-08-08T07:23:01;2.5;;;0.4;;
76548;SDS011;65391;52.068;4.542;2023-08-08T07:25:26;3.5;;;0.6;;
76548;SDS011;65391;52.068;4.542;2023-08-08T07:27:51;3.5;;;0.6;;
76548;SDS011;65391;52.068;4.542;2023-08-08T07:30:16;3.5;;;0.6;;
76548;SDS011;65391;52.068;4.542;2023-08-08T07:32:41;3.5;;;0.6;;
76548;SDS011;65391;52.068;4.542;2023-08-08T07:35:06;2.3;;;0.3;;
76548;SDS011;65391;52.068;4.542;2023-08-08T07:37:31;2.3;;;0.3;;
76548;SDS011;65391;52.068;4.542;2023-08-08T07:39:56;2.3;;;0.3;;
76548;SDS011;65391;52.068;4.542;2023-08-08T07:42:21;2.3;;;0.3;;
76548;SDS011;65391;52.068;4.542;2023-08-08T07:44:46;1.8;;;0.5;;
76548;SDS011;65391;52.068;4.542;2023-08-08T07:47:11;1.8;;;0.5;;
76548;SDS011;65391;52.068;4.542;2023-08-08T07:49:36;1.8;;;0.5;;
76548;SDS011;65391;52.068;4.542;2023-08-08T07:52:01;1.8;;;0.5;;
76548;SDS011;65391;52.068;4.542;2023-08-08T07:54:26;0.6;;;0.3;;
76548;SDS011;65391;52.068;4.542;2023-08-08T07:56:51;0.6;;;0.3;;
76548;SDS011;65391;52.068;4.542;2023-08-08T07:59:16;0.6;;;0.3;;
76548;SDS011;65391;52.068;4.542;2023-08-08T08:01:41;0.6;;;0.3;;
76548;SDS011;65391;52.068;4.542;2023-08-08T08:04:06;1.4;;;0.3;;
76548;SDS011;65391;52.068;4.542;2023-08-08T08:06:31;1.4;;;0.3;;
76548;SDS011;65391;52.068;4.542;2023-08-08T08:08:56;1.4;;;0.3;;
76548;SDS011;65391;52.068;4.542;2023-08-08T08:11:21;1.4;;;0.3;;
76548;SDS011;65391;52.068;4.542;2023-08-08T08:13:46;3.5;;;0.5;;
76548;SDS011;65391;52.068;4.542;2023-08-08T08:16:11;3.5;;;0.5;;
76548;SDS011;65391;52.068;4.542;2023-08-08T08:18:36;3.5;;;0.5;;
76548;SDS011;65391;52.068;4.542;2023-08-08T08:21:01;3.5;;;0.5;;
76548;SDS011;65391;52.068;4.542;2023-08-08T08:23:26;3.5;;;0.5;;
76548;SDS011;65391;52.068;4.542;2023-08-08T08:25:51;1.4;;;0.3;;
76548;SDS011;65391;52.068;4.542;2023-08-08T08:28:16;1.4;;;0.3;;
76548;SDS011;65391;52.068;4.542;2023-08-08T08:30:41;1.4;;;0.3;;
76548;SDS011;65391;52.068;4.542;2023-08-08T08:33:06;1.4;;;0.3;;
76548;SDS011;65391;52.068;4.542;2023-08-08T08:35:31;1.3;;;0.4;;
76548;SDS011;65391;52.068;4.542;2023-08-08T08:37:56;1.3;;;0.4;;
76548;SDS011;65391;52.068;4.542;2023-08-08T08:40:21;1.3;;;0.4;;
76548;SDS011;65391;52.068;4.542;2023-08-08T08:42:46;1.3;;;0.4;;
76548;SDS011;65391;52.068;4.542;2023-08-08T08:45:11;3;;;0.6;;
76548;SDS011;65391;52.068;4.542;2023-08-08T08:47:36;3;;;0.6;;
76548;SDS011;65391;52.068;4.542;2023-08-08T08:50:01;3;;;0.6;;
76548;SDS011;65391;52.068;4.542;2023-08-08T08:52:26;3;;;0.6;;
76548;SDS011;65391;52.068;4.542;2023-08-08T08:54:51;2.2;;;0.6;;
76548;SDS011;65391;52.068;4.542;2023-08-08T08:57:16;2.2;;;0.6;;
76548;SDS011;65391;52.068;4.542;2023-08-08T08:59:41;2.2;;;0.6;;
76548;SDS011;65391;52.068;4.542;2023-08-08T09:02:06;2.2;;;0.6;;
76548;SDS011;65391;52.068;4.542;2023-08-08T09:04:31;1.9;;;0.6;;
76548;SDS011;65391;52.068;4.542;2023-08-08T09:06:56;1.9;;;0.6;;
76548;SDS011;65391;52.068;4.542;2023-08-08T09:09:21;1.9;;;0.6;;
76548;SDS011;65391;52.068;4.542;2023-08-08T09:11:47;1.9;;;0.6;;
76548;SDS011;65391;52.068;4.542;2023-08-08T09:14:15;1.7;;;0.5;;
76548;SDS011;65391;52.068;4.542;2023-08-08T09:16:36;1.7;;;0.5;;
76548;SDS011;65391;52.068;4.542;2023-08-08T09:19:01;1.7;;;0.5;;
76548;SDS011;65391;52.068;4.542;2023-08-08T09:21:26;1.7;;;0.5;;
76548;SDS011;65391;52.068;4.542;2023-08-08T09:23:51;1.4;;;0.6;;
76548;SDS011;65391;52.068;4.542;2023-08-08T09:26:16;1.4;;;0.6;;
76548;SDS011;65391;52.068;4.542;2023-08-08T09:28:41;1.4;;;0.6;;
76548;SDS011;65391;52.068;4.542;2023-08-08T09:31:16;1.4;;;0.6;;
76548;SDS011;65391;52.068;4.542;2023-08-08T09:33:31;1.4;;;0.6;;
76548;SDS011;65391;52.068;4.542;2023-08-08T09:35:56;2.3;;;0.5;;
76548;SDS011;65391;52.068;4.542;2023-08-08T09:38:21;2.3;;;0.5;;
76548;SDS011;65391;52.068;4.542;2023-08-08T09:40:46;2.3;;;0.5;;
76548;SDS011;65391;52.068;4.542;2023-08-08T09:43:11;2.3;;;0.5;;
76548;SDS011;65391;52.068;4.542;2023-08-08T09:45:36;1;;;0.4;;
76548;SDS011;65391;52.068;4.542;2023-08-08T09:48:01;1;;;0.4;;
76548;SDS011;65391;52.068;4.542;2023-08-08T09:50:26;1;;;0.4;;
76548;SDS011;65391;52.068;4.542;2023-08-08T09:52:51;1;;;0.4;;
76548;SDS011;65391;52.068;4.542;2023-08-08T09:55:16;3.1;;;0.5;;
76548;SDS011;65391;52.068;4.542;2023-08-08T09:57:41;3.1;;;0.5;;
76548;SDS011;65391;52.068;4.542;2023-08-08T10:00:07;3.1;;;0.5;;
76548;SDS011;65391;52.068;4.542;2023-08-08T10:02:31;3.1;;;0.5;;
76548;SDS011;65391;52.068;4.542;2023-08-08T10:04:56;3.8;;;0.4;;
76548;SDS011;65391;52.068;4.542;2023-08-08T10:07:21;3.8;;;0.4;;
76548;SDS011;65391;52.068;4.542;2023-08-08T10:09:46;3.8;;;0.4;;
76548;SDS011;65391;52.068;4.542;2023-08-08T10:12:11;3.8;;;0.4;;
76548;SDS011;65391;52.068;4.542;2023-08-08T10:14:36;1.5;;;0.5;;
76548;SDS011;65391;52.068;4.542;2023-08-08T10:17:02;1.5;;;0.5;;
76548;SDS011;65391;52.068;4.542;2023-08-08T10:19:26;1.5;;;0.5;;
76548;SDS011;65391;52.068;4.542;2023-08-08T10:21:56;1.5;;;0.5;;
76548;SDS011;65391;52.068;4.542;2023-08-08T10:24:19;1.9;;;0.5;;
76548;SDS011;65391;52.068;4.542;2023-08-08T10:26:57;1.9;;;0.5;;
76548;SDS011;65391;52.068;4.542;2023-08-08T10:29:06;1.9;;;0.5;;
76548;SDS011;65391;52.068;4.542;2023-08-08T10:31:33;1.9;;;0.5;;
76548;SDS011;65391;52.068;4.542;2023-08-08T10:34:04;2.1;;;0.3;;
76548;SDS011;65391;52.068;4.542;2023-08-08T10:36:21;2.1;;;0.3;;
76548;SDS011;65391;52.068;4.542;2023-08-08T10:38:48;2.1;;;0.3;;
76548;SDS011;65391;52.068;4.542;2023-08-08T10:41:12;2.1;;;0.3;;
76548;SDS011;65391;52.068;4.542;2023-08-08T10:43:36;2.1;;;0.3;;
76548;SDS011;65391;52.068;4.542;2023-08-08T10:46:02;1.9;;;0.4;;
76548;SDS011;65391;52.068;4.542;2023-08-08T10:48:26;1.9;;;0.4;;
76548;SDS011;65391;52.068;4.542;2023-08-08T10:50:54;1.9;;;0.4;;
76548;SDS011;65391;52.068;4.542;2023-08-08T10:53:16;1.9;;;0.4;;
76548;SDS011;65391;52.068;4.542;2023-08-08T10:55:41;1.1;;;0.3;;
76548;SDS011;65391;52.068;4.542;2023-08-08T10:58:07;1.1;;;0.3;;
76548;SDS011;65391;52.068;4.542;2023-08-08T11:00:32;1.1;;;0.3;;
76548;SDS011;65391;52.068;4.542;2023-08-08T11:02:57;1.1;;;0.3;;
76548;SDS011;65391;52.068;4.542;2023-08-08T11:05:22;1.8;;;0.5;;
76548;SDS011;65391;52.068;4.542;2023-08-08T11:07:46;1.8;;;0.5;;
76548;SDS011;65391;52.068;4.542;2023-08-08T11:10:11;1.8;;;0.5;;
76548;SDS011;65391;52.068;4.542;2023-08-08T11:12:36;1.8;;;0.5;;
76548;SDS011;65391;52.068;4.542;2023-08-08T11:15:01;3.8;;;0.7;;
76548;SDS011;65391;52.068;4.542;2023-08-08T11:17:26;3.8;;;0.7;;
76548;SDS011;65391;52.068;4.542;2023-08-08T11:19:52;3.8;;;0.7;;
76548;SDS011;65391;52.068;4.542;2023-08-08T11:22:16;3.8;;;0.7;;
76548;SDS011;65391;52.068;4.542;2023-08-08T11:24:41;2.5;;;0.4;;
76548;SDS011;65391;52.068;4.542;2023-08-08T11:27:06;2.5;;;0.4;;
76548;SDS011;65391;52.068;4.542;2023-08-08T11:29:31;2.5;;;0.4;;
76548;SDS011;65391;52.068;4.542;2023-08-08T11:31:57;2.5;;;0.4;;
76548;SDS011;65391;52.068;4.542;2023-08-08T11:34:21;0.6;;;0.2;;
76548;SDS011;65391;52.068;4.542;2023-08-08T11:36:46;0.6;;;0.2;;
76548;SDS011;65391;52.068;4.542;2023-08-08T11:39:11;0.6;;;0.2;;
76548;SDS011;65391;52.068;4.542;2023-08-08T11:41:36;0.6;;;0.2;;
76548;SDS011;65391;52.068;4.542;2023-08-08T11:44:02;6.9;;;0.4;;
76548;SDS011;65391;52.068;4.542;2023-08-08T11:46:26;6.9;;;0.4;;
76548;SDS011;65391;52.068;4.542;2023-08-08T11:48:51;6.9;;;0.4;;
76548;SDS011;65391;52.068;4.542;2023-08-08T11:51:17;6.9;;;0.4;;
76548;SDS011;65391;52.068;4.542;2023-08-08T11:53:48;6.9;;;0.4;;
76548;SDS011;65391;52.068;4.542;2023-08-08T11:56:07;3.3;;;0.4;;
76548;SDS011;65391;52.068;4.542;2023-08-08T11:58:31;3.3;;;0.4;;
76548;SDS011;65391;52.068;4.542;2023-08-08T12:00:56;3.3;;;0.4;;
76548;SDS011;65391;52.068;4.542;2023-08-08T12:03:21;3.3;;;0.4;;
76548;SDS011;65391;52.068;4.542;2023-08-08T12:05:47;2.7;;;1.5;;
76548;SDS011;65391;52.068;4.542;2023-08-08T12:08:11;2.7;;;1.5;;
76548;SDS011;65391;52.068;4.542;2023-08-08T12:10:37;2.7;;;1.5;;
76548;SDS011;65391;52.068;4.542;2023-08-08T12:13:01;2.7;;;1.5;;
76548;SDS011;65391;52.068;4.542;2023-08-08T12:15:28;1.4;;;0.5;;
76548;SDS011;65391;52.068;4.542;2023-08-08T12:17:51;1.4;;;0.5;;
76548;SDS011;65391;52.068;4.542;2023-08-08T12:20:16;1.4;;;0.5;;
76548;SDS011;65391;52.068;4.542;2023-08-08T12:22:41;1.4;;;0.5;;
76548;SDS011;65391;52.068;4.542;2023-08-08T12:25:07;2.6;;;0.5;;
76548;SDS011;65391;52.068;4.542;2023-08-08T12:27:31;2.6;;;0.5;;
76548;SDS011;65391;52.068;4.542;2023-08-08T12:29:57;2.6;;;0.5;;
76548;SDS011;65391;52.068;4.542;2023-08-08T12:32:22;2.6;;;0.5;;
76548;SDS011;65391;52.068;4.542;2023-08-08T12:34:46;4.2;;;0.7;;
76548;SDS011;65391;52.068;4.542;2023-08-08T12:37:11;4.2;;;0.7;;
76548;SDS011;65391;52.068;4.542;2023-08-08T12:39:36;4.2;;;0.7;;
76548;SDS011;65391;52.068;4.542;2023-08-08T12:42:01;4.2;;;0.7;;
76548;SDS011;65391;52.068;4.542;2023-08-08T12:44:27;4.3;;;0.8;;
76548;SDS011;65391;52.068;4.542;2023-08-08T12:46:51;4.3;;;0.8;;
76548;SDS011;65391;52.068;4.542;2023-08-08T12:49:16;4.3;;;0.8;;
76548;SDS011;65391;52.068;4.542;2023-08-08T12:51:41;4.3;;;0.8;;
76548;SDS011;65391;52.068;4.542;2023-08-08T12:54:06;1.1;;;0.5;;
76548;SDS011;65391;52.068;4.542;2023-08-08T12:56:32;1.1;;;0.5;;
76548;SDS011;65391;52.068;4.542;2023-08-08T12:58:57;1.1;;;0.5;;
76548;SDS011;65391;52.068;4.542;2023-08-08T13:01:22;1.1;;;0.5;;
76548;SDS011;65391;52.068;4.542;2023-08-08T13:03:47;1.1;;;0.5;;
76548;SDS011;65391;52.068;4.542;2023-08-08T13:06:12;2.7;;;0.8;;
76548;SDS011;65391;52.068;4.542;2023-08-08T13:08:37;2.7;;;0.8;;
76548;SDS011;65391;52.068;4.542;2023-08-08T13:11:02;2.7;;;0.8;;
76548;SDS011;65391;52.068;4.542;2023-08-08T13:13:27;2.7;;;0.8;;
76548;SDS011;65391;52.068;4.542;2023-08-08T13:15:52;1.9;;;0.6;;
76548;SDS011;65391;52.068;4.542;2023-08-08T13:18:17;1.9;;;0.6;;
76548;SDS011;65391;52.068;4.542;2023-08-08T13:20:42;1.9;;;0.6;;
76548;SDS011;65391;52.068;4.542;2023-08-08T13:23:07;1.9;;;0.6;;
76548;SDS011;65391;52.068;4.542;2023-08-08T13:25:32;1.1;;;0.4;;
76548;SDS011;65391;52.068;4.542;2023-08-08T13:27:57;1.1;;;0.4;;
76548;SDS011;65391;52.068;4.542;2023-08-08T13:30:22;1.1;;;0.4;;
76548;SDS011;65391;52.068;4.542;2023-08-08T13:32:47;1.1;;;0.4;;
76548;SDS011;65391;52.068;4.542;2023-08-08T13:35:12;2;;;0.5;;
76548;SDS011;65391;52.068;4.542;2023-08-08T13:37:37;2;;;0.5;;
76548;SDS011;65391;52.068;4.542;2023-08-08T13:40:02;2;;;0.5;;
76548;SDS011;65391;52.068;4.542;2023-08-08T13:42:27;2;;;0.5;;
76548;SDS011;65391;52.068;4.542;2023-08-08T13:44:52;1;;;0.4;;
76548;SDS011;65391;52.068;4.542;2023-08-08T13:47:17;1;;;0.4;;
76548;SDS011;65391;52.068;4.542;2023-08-08T13:49:42;1;;;0.4;;
76548;SDS011;65391;52.068;4.542;2023-08-08T13:52:08;1;;;0.4;;
76548;SDS011;65391;52.068;4.542;2023-08-08T13:54:32;1.8;;;0.5;;
76548;SDS011;65391;52.068;4.542;2023-08-08T13:56:57;1.8;;;0.5;;
76548;SDS011;65391;52.068;4.542;2023-08-08T13:59:22;1.8;;;0.5;;
76548;SDS011;65391;52.068;4.542;2023-08-08T14:01:47;1.8;;;0.5;;
76548;SDS011;65391;52.068;4.542;2023-08-08T14:04:12;4.1;;;0.8;;
76548;SDS011;65391;52.068;4.542;2023-08-08T14:06:37;4.1;;;0.8;;
76548;SDS011;65391;52.068;4.542;2023-08-08T14:09:02;4.1;;;0.8;;
76548;SDS011;65391;52.068;4.542;2023-08-08T14:11:27;4.1;;;0.8;;
76548;SDS011;65391;52.068;4.542;2023-08-08T14:13:52;4.1;;;0.8;;
76548;SDS011;65391;52.068;4.542;2023-08-08T14:16:17;3.5;;;0.7;;
76548;SDS011;65391;52.068;4.542;2023-08-08T14:18:42;3.5;;;0.7;;
76548;SDS011;65391;52.068;4.542;2023-08-08T14:21:07;3.5;;;0.7;;
76548;SDS011;65391;52.068;4.542;2023-08-08T14:23:32;3.5;;;0.7;;
76548;SDS011;65391;52.068;4.542;2023-08-08T14:25:57;4.1;;;0.5;;
76548;SDS011;65391;52.068;4.542;2023-08-08T14:28:22;4.1;;;0.5;;
76548;SDS011;65391;52.068;4.542;2023-08-08T14:30:47;4.1;;;0.5;;
76548;SDS011;65391;52.068;4.542;2023-08-08T14:33:12;4.1;;;0.5;;
76548;SDS011;65391;52.068;4.542;2023-08-08T14:35:37;4.8;;;1.3;;
76548;SDS011;65391;52.068;4.542;2023-08-08T14:38:02;4.8;;;1.3;;
76548;SDS011;65391;52.068;4.542;2023-08-08T14:40:27;4.8;;;1.3;;
76548;SDS011;65391;52.068;4.542;2023-08-08T14:42:52;4.8;;;1.3;;
76548;SDS011;65391;52.068;4.542;2023-08-08T14:45:17;2.9;;;0.7;;
76548;SDS011;65391;52.068;4.542;2023-08-08T14:47:42;2.9;;;0.7;;
76548;SDS011;65391;52.068;4.542;2023-08-08T14:50:07;2.9;;;0.7;;
76548;SDS011;65391;52.068;4.542;2023-08-08T14:52:32;2.9;;;0.7;;
76548;SDS011;65391;52.068;4.542;2023-08-08T14:54:57;1.2;;;0.4;;
76548;SDS011;65391;52.068;4.542;2023-08-08T14:57:22;1.2;;;0.4;;
76548;SDS011;65391;52.068;4.542;2023-08-08T14:59:47;1.2;;;0.4;;
76548;SDS011;65391;52.068;4.542;2023-08-08T15:02:12;1.2;;;0.4;;